Time;durP1;ratioP1;P1;durP2;ratioP2;P2;SDS_P1;SDS_P2;PMS_P1;PMS_P2;Temp;Humidity;BMP_temperature;BMP_pressure;BME280_temperature;BME280_humidity;BME280_pressure;Samples;Min_cycle;Max_cycle;Signal;HPM_P1;HPM_P2
2022/04/09 00:00:09;;;;;;;1.60;0.55;;;;;;;6.20;69.58;94812.44;4915273;29;20075;-81
2022/04/09 00:02:38;;;;;;;0.73;0.47;;;;;;;6.17;70.68;94808.47;4915612;29;20049;-81
2022/04/09 00:05:07;;;;;;;1.15;0.68;;;;;;;6.19;71.07;94826.41;4916351;29;20057;-81
2022/04/09 00:07:34;;;;;;;0.10;0.10;;;;;;;6.18;69.98;94850.69;4914331;29;20076;-81
2022/04/09 00:10:04;;;;;;;0.95;0.20;;;;;;;6.15;70.24;94856.25;4915249;29;20067;-81
2022/04/09 00:12:32;;;;;;;0.15;0.10;;;;;;;6.12;69.56;94856.63;4914949;29;20052;-81
2022/04/09 00:15:00;;;;;;;0.63;0.32;;;;;;;6.11;70.15;94868.78;4914568;29;20055;-81
2022/04/09 00:17:28;;;;;;;1.45;1.15;;;;;;;6.11;70.04;94865.41;4913689;29;20056;-80
2022/04/09 00:19:56;;;;;;;1.42;1.00;;;;;;;6.11;70.24;94886.91;4917283;29;20068;-81
2022/04/09 00:22:23;;;;;;;0.95;0.38;;;;;;;6.12;70.29;94904.06;4922140;29;20143;-80
2022/04/09 00:24:51;;;;;;;0.75;0.75;;;;;;;6.11;69.83;94907.63;4919573;29;20052;-81
2022/04/09 00:27:20;;;;;;;0.47;0.15;;;;;;;6.09;70.44;94919.97;4913957;29;20052;-81
2022/04/09 00:29:47;;;;;;;1.20;0.30;;;;;;;6.08;70.17;94933.09;4914183;29;20128;-81
2022/04/09 00:32:15;;;;;;;1.55;0.30;;;;;;;6.01;70.29;94946.00;4913577;29;20112;-81
2022/04/09 00:34:43;;;;;;;0.20;0.10;;;;;;;5.95;69.32;94949.38;4913112;29;20056;-80
2022/04/09 00:37:11;;;;;;;0.30;0.20;;;;;;;5.95;69.87;94976.06;4912081;29;20052;-81
2022/04/09 00:39:38;;;;;;;0.35;0.20;;;;;;;5.92;69.17;94980.78;4912235;29;20049;-81
2022/04/09 00:42:12;;;;;;;0.77;0.20;;;;;;;5.89;69.77;94989.72;4912391;29;20135;-81
2022/04/09 00:44:41;;;;;;;0.55;0.35;;;;;;;5.89;70.27;95020.00;4911563;29;20365;-80
2022/04/09 00:47:09;;;;;;;0.08;0.08;;;;;;;5.86;68.39;95051.41;4911654;29;20099;-81
2022/04/09 00:49:38;;;;;;;0.40;0.30;;;;;;;5.74;67.94;95080.41;4912277;29;20086;-81
2022/04/09 00:52:07;;;;;;;0.10;0.10;;;;;;;5.58;68.09;95104.78;4911803;29;20112;-81
2022/04/09 00:54:38;;;;;;;0.20;0.10;;;;;;;5.46;68.41;95095.91;4911071;29;20128;-81
2022/04/09 00:57:07;;;;;;;1.20;0.10;;;;;;;5.34;69.30;95068.97;4909874;29;20555;-81
2022/04/09 00:59:36;;;;;;;0.15;0.15;;;;;;;5.27;69.90;95066.34;4908012;29;20052;-80
2022/04/09 01:02:06;;;;;;;0.63;0.05;;;;;;;5.20;69.87;95085.34;4907643;29;20052;-81
2022/04/09 01:04:35;;;;;;;0.10;0.10;;;;;;;5.16;70.13;95105.63;4908798;29;20056;-81
2022/04/09 01:07:03;;;;;;;3.72;0.38;;;;;;;5.15;70.04;95124.69;4909899;29;20052;-81
2022/04/09 01:09:31;;;;;;;0.28;0.28;;;;;;;5.12;70.39;95133.59;4910687;29;20144;-81
2022/04/09 01:12:00;;;;;;;0.15;0.15;;;;;;;5.09;70.24;95138.34;4910442;29;20059;-81
2022/04/09 01:14:28;;;;;;;0.20;0.20;;;;;;;5.03;69.95;95137.31;4910144;29;20056;-81
2022/04/09 01:16:56;;;;;;;0.30;0.10;;;;;;;4.95;70.29;95135.63;4909452;29;20060;-80
2022/04/09 01:19:25;;;;;;;0.73;0.30;;;;;;;4.92;69.92;95154.06;4908577;29;20149;-82
2022/04/09 01:21:54;;;;;;;0.28;0.20;;;;;;;4.88;70.67;95176.09;4909569;29;20138;-82
2022/04/09 01:24:23;;;;;;;0.40;0.30;;;;;;;4.88;71.15;95186.44;4909807;29;20058;-81
2022/04/09 01:26:51;;;;;;;0.25;0.20;;;;;;;4.87;70.64;95200.31;4909202;29;20048;-80
2022/04/09 01:29:18;;;;;;;0.30;0.20;;;;;;;4.82;70.63;95212.19;4908455;29;20057;-81
2022/04/09 01:31:46;;;;;;;1.45;0.20;;;;;;;4.74;70.80;95224.22;4908610;29;20053;-80
2022/04/09 01:34:14;;;;;;;0.57;0.30;;;;;;;4.69;70.70;95244.59;4908299;29;20080;-81
2022/04/09 01:36:42;;;;;;;0.40;0.40;;;;;;;4.66;71.32;95267.44;4907689;29;20055;-82
2022/04/09 01:39:10;;;;;;;0.10;0.10;;;;;;;4.65;71.35;95276.94;4906687;29;20049;-81
2022/04/09 01:41:39;;;;;;;0.10;0.10;;;;;;;4.66;71.30;95288.09;4906528;29;20052;-81
2022/04/09 01:44:07;;;;;;;0.57;0.45;;;;;;;4.67;71.50;95300.00;4907176;29;20075;-81
2022/04/09 01:46:34;;;;;;;0.22;0.22;;;;;;;4.64;70.89;95300.38;4905850;29;20053;-81
2022/04/09 01:49:02;;;;;;;0.50;0.30;;;;;;;4.63;71.00;95317.63;4907432;29;20057;-81
2022/04/09 01:51:30;;;;;;;0.50;0.47;;;;;;;4.66;71.64;95324.25;4906676;29;20084;-81
2022/04/09 01:53:58;;;;;;;0.65;0.65;;;;;;;4.68;71.84;95336.00;4906522;29;20048;-81
2022/04/09 01:56:25;;;;;;;0.32;0.32;;;;;;;4.64;70.97;95339.13;4907401;29;20054;-82
2022/04/09 01:58:54;;;;;;;0.70;0.70;;;;;;;4.61;70.90;95349.78;4906474;29;20056;-81
2022/04/09 02:01:22;;;;;;;1.10;0.45;;;;;;;4.59;71.38;95346.56;4906724;29;20135;-80
2022/04/09 02:03:50;;;;;;;0.65;0.65;;;;;;;4.58;71.61;95350.13;4906759;29;20543;-81
2022/04/09 02:06:17;;;;;;;0.80;0.80;;;;;;;4.53;71.68;95353.25;4905231;29;20053;-81
2022/04/09 02:08:45;;;;;;;0.90;0.90;;;;;;;4.53;72.17;95363.56;4906226;29;20426;-80
2022/04/09 02:11:14;;;;;;;0.70;0.70;;;;;;;4.60;72.16;95363.69;4906522;29;20049;-80
2022/04/09 02:13:41;;;;;;;0.80;0.80;;;;;;;4.64;72.36;95380.44;4906503;29;20053;-81
2022/04/09 02:16:10;;;;;;;1.58;0.70;;;;;;;4.64;71.90;95391.56;4913088;29;20056;-81
2022/04/09 02:18:38;;;;;;;1.95;0.90;;;;;;;4.64;72.11;95390.78;4917132;29;20117;-81
2022/04/09 02:21:06;;;;;;;0.60;0.60;;;;;;;4.66;72.29;95399.94;4913277;29;20066;-81
2022/04/09 02:23:33;;;;;;;0.80;0.80;;;;;;;4.68;72.54;95412.66;4911644;29;20048;-81
2022/04/09 02:26:01;;;;;;;1.15;0.77;;;;;;;4.68;71.86;95423.00;4910643;29;20056;-81
2022/04/09 02:28:31;;;;;;;0.63;0.63;;;;;;;4.63;71.58;95426.09;4908998;29;20052;-81
2022/04/09 02:30:59;;;;;;;2.10;0.75;;;;;;;4.65;71.95;95431.09;4908444;29;20063;-81
2022/04/09 02:33:28;;;;;;;0.50;0.50;;;;;;;4.62;71.62;95437.44;4907401;29;20063;-81
2022/04/09 02:35:55;;;;;;;0.65;0.65;;;;;;;4.64;71.87;95450.19;4906861;29;20063;-81
2022/04/09 02:38:24;;;;;;;0.73;0.70;;;;;;;4.66;71.94;95454.19;4906692;29;20132;-81
2022/04/09 02:40:51;;;;;;;0.63;0.52;;;;;;;4.64;71.92;95458.72;4906664;29;20526;-81
2022/04/09 02:43:19;;;;;;;0.60;0.60;;;;;;;4.62;71.51;95473.59;4906437;29;20052;-81
2022/04/09 02:45:47;;;;;;;1.38;1.08;;;;;;;4.57;71.13;95482.81;4905783;29;20059;-80
2022/04/09 02:48:15;;;;;;;1.13;0.68;;;;;;;4.55;71.72;95490.75;4905891;29;20052;-81
2022/04/09 02:50:43;;;;;;;0.95;0.95;;;;;;;4.52;72.11;95496.25;4911986;29;20055;-82
2022/04/09 02:53:11;;;;;;;0.80;0.68;;;;;;;4.53;71.98;95498.66;4905292;29;20068;-81
2022/04/09 02:55:39;;;;;;;1.60;1.20;;;;;;;4.52;71.65;95515.13;4905688;29;20053;-81
2022/04/09 02:58:07;;;;;;;0.70;0.70;;;;;;;4.47;71.51;95525.16;4904187;29;20045;-81
2022/04/09 03:00:34;;;;;;;0.95;0.88;;;;;;;4.44;71.82;95535.84;4905090;29;20048;-81
2022/04/09 03:03:02;;;;;;;7.53;1.63;;;;;;;4.46;72.35;95546.81;4904636;29;20487;-81
2022/04/09 03:05:30;;;;;;;1.90;1.40;;;;;;;4.49;73.00;95551.63;4905196;29;20139;-81
2022/04/09 03:07:59;;;;;;;1.77;1.35;;;;;;;4.53;72.61;95555.47;4904399;29;20052;-80
2022/04/09 03:10:26;;;;;;;3.17;1.80;;;;;;;4.54;71.35;95559.66;4918452;29;20051;-80
2022/04/09 03:12:55;;;;;;;1.48;1.38;;;;;;;4.52;71.68;95573.72;4923157;29;20105;-81
2022/04/09 03:15:23;;;;;;;2.50;1.20;;;;;;;4.50;71.10;95581.66;4913780;29;20056;-81
2022/04/09 03:17:50;;;;;;;1.60;1.40;;;;;;;4.51;71.90;95582.47;4907279;29;20060;-80
2022/04/09 03:20:18;;;;;;;1.30;1.20;;;;;;;4.50;72.08;95588.56;4905483;29;20052;-81
2022/04/09 03:22:47;;;;;;;1.85;1.50;;;;;;;4.53;72.84;95599.38;4905308;29;20057;-81
2022/04/09 03:25:17;;;;;;;1.73;1.60;;;;;;;4.56;72.21;95605.19;4905551;29;20048;-81
2022/04/09 03:27:45;;;;;;;1.77;1.67;;;;;;;4.59;73.38;95615.19;4903095;29;20056;-81
2022/04/09 03:30:13;;;;;;;1.98;1.70;;;;;;;4.59;72.19;95613.41;4905349;29;20513;-80
2022/04/09 03:32:41;;;;;;;2.10;2.00;;;;;;;4.59;71.69;95625.50;4905218;29;20052;-81
2022/04/09 03:35:12;;;;;;;1.83;1.73;;;;;;;4.62;72.89;95628.56;4904608;29;20057;-80
2022/04/09 03:37:40;;;;;;;2.05;1.95;;;;;;;4.64;71.79;95638.75;4903812;29;20052;-80
2022/04/09 03:40:09;;;;;;;1.80;1.70;;;;;;;4.61;70.59;95649.38;4960469;23;20050;-81
2022/04/09 03:42:38;;;;;;;2.20;2.10;;;;;;;4.56;70.46;95656.84;4947478;29;20064;-81
2022/04/09 03:45:07;;;;;;;2.78;2.58;;;;;;;4.48;71.77;95661.06;4954168;29;20479;-81
2022/04/09 03:47:35;;;;;;;2.30;2.10;;;;;;;4.42;71.06;95671.25;4945922;29;20087;-81
2022/04/09 03:50:03;;;;;;;2.45;2.30;;;;;;;4.37;71.54;95674.31;4929966;29;20058;-81
2022/04/09 03:52:30;;;;;;;2.67;2.47;;;;;;;4.37;72.25;95684.66;4927887;29;20055;-81
2022/04/09 03:54:58;;;;;;;3.17;2.13;;;;;;;4.31;72.32;95685.34;4925862;29;20127;-81
2022/04/09 03:57:26;;;;;;;4.38;2.50;;;;;;;4.25;72.02;95684.19;4929659;29;20115;-81
2022/04/09 03:59:57;;;;;;;2.53;2.33;;;;;;;4.20;71.58;95683.91;4928687;29;20052;-81
2022/04/09 04:02:26;;;;;;;3.17;2.60;;;;;;;4.16;72.15;95695.53;4931842;29;20051;-81
2022/04/09 04:04:54;;;;;;;2.60;2.40;;;;;;;4.08;71.92;95696.31;4927790;29;20056;-81
2022/04/09 04:07:23;;;;;;;3.60;2.40;;;;;;;4.04;71.86;95700.19;4926177;29;20056;-81
2022/04/09 04:09:51;;;;;;;2.53;2.33;;;;;;;3.99;72.52;95712.78;4927081;29;20052;-82
2022/04/09 04:12:19;;;;;;;4.18;3.00;;;;;;;3.98;72.79;95711.19;4927684;29;20075;-81
2022/04/09 04:14:46;;;;;;;4.30;3.90;;;;;;;3.94;72.83;95720.22;4927875;29;20075;-81
2022/04/09 04:17:16;;;;;;;3.95;3.42;;;;;;;3.91;73.38;95733.41;4928339;29;20055;-81
2022/04/09 04:19:43;;;;;;;7.07;4.28;;;;;;;3.91;73.46;95730.84;4926678;29;20056;-81
2022/04/09 04:22:11;;;;;;;6.65;5.18;;;;;;;3.91;72.98;95736.00;4931562;29;20578;-82
2022/04/09 04:24:39;;;;;;;6.43;4.75;;;;;;;3.87;72.17;95740.69;4934804;29;20056;-82
2022/04/09 04:27:07;;;;;;;8.38;6.28;;;;;;;3.86;72.74;95743.44;4929762;29;20059;-81
2022/04/09 04:29:35;;;;;;;8.95;5.50;;;;;;;3.84;72.54;95745.38;4925650;29;20056;-81
2022/04/09 04:32:04;;;;;;;10.02;6.82;;;;;;;3.81;73.08;95753.44;4925070;29;20114;-81
2022/04/09 04:34:33;;;;;;;7.18;6.00;;;;;;;3.81;73.08;95753.44;4929363;29;20060;-81
2022/04/09 04:37:01;;;;;;;7.43;5.78;;;;;;;3.79;73.09;95748.44;4925854;29;20044;-81
2022/04/09 04:39:28;;;;;;;7.85;6.22;;;;;;;3.78;73.45;95761.47;4936522;29;20051;-81
2022/04/09 04:41:56;;;;;;;8.82;6.43;;;;;;;3.75;73.29;95772.94;4931916;29;20052;-81
2022/04/09 04:44:24;;;;;;;7.88;6.38;;;;;;;3.70;73.30;95770.81;4924493;29;20067;-81
2022/04/09 04:46:51;;;;;;;8.10;5.65;;;;;;;3.72;73.22;95786.16;4930914;29;20052;-81
2022/04/09 04:49:19;;;;;;;8.40;6.80;;;;;;;3.71;73.49;95797.41;4933107;29;20063;-81
2022/04/09 04:51:48;;;;;;;8.52;7.45;;;;;;;3.72;73.81;95805.00;4931678;29;20071;-81
2022/04/09 04:54:16;;;;;;;10.88;7.78;;;;;;;3.72;73.57;95807.59;4931765;29;20062;-81
2022/04/09 04:56:44;;;;;;;9.95;7.45;;;;;;;3.71;73.46;95824.00;4931054;29;20044;-81
2022/04/09 04:59:12;;;;;;;10.07;7.72;;;;;;;3.69;73.89;95831.09;4932023;29;20054;-81
2022/04/09 05:01:40;;;;;;;11.80;8.27;;;;;;;3.71;73.76;95844.66;4931431;29;20562;-81
2022/04/09 05:04:09;;;;;;;9.82;7.65;;;;;;;3.67;73.40;95848.53;4931321;29;20063;-81
2022/04/09 05:06:37;;;;;;;9.35;8.38;;;;;;;3.69;73.92;95856.09;4931544;29;20064;-81
2022/04/09 05:09:06;;;;;;;9.15;8.02;;;;;;;3.72;74.52;95866.91;4932918;29;20119;-81
2022/04/09 05:11:34;;;;;;;10.27;8.00;;;;;;;3.74;73.82;95871.94;4931394;29;20067;-81
2022/04/09 05:14:03;;;;;;;13.00;6.72;;;;;;;3.77;73.85;95868.22;4931695;29;20111;-81
2022/04/09 05:16:31;;;;;;;10.10;7.72;;;;;;;3.78;74.35;95869.81;4932174;29;20509;-81
2022/04/09 05:18:59;;;;;;;10.32;7.55;;;;;;;3.80;74.65;95885.94;4930922;29;20048;-81
2022/04/09 05:21:27;;;;;;;9.15;7.15;;;;;;;3.83;74.63;95885.66;4930757;29;20051;-81
2022/04/09 05:23:54;;;;;;;11.07;7.55;;;;;;;3.87;74.01;95895.50;4930388;29;20058;-81
2022/04/09 05:26:23;;;;;;;10.88;8.20;;;;;;;3.91;74.82;95906.28;4929878;29;20052;-81
2022/04/09 05:28:53;;;;;;;12.85;8.43;;;;;;;3.98;75.18;95916.78;4930358;29;20058;-81
2022/04/09 05:31:25;;;;;;;11.02;8.07;;;;;;;4.02;74.63;95924.06;4934591;29;20093;-81
2022/04/09 05:33:52;;;;;;;9.65;7.82;;;;;;;4.03;74.28;95930.06;4931709;29;20055;-81
2022/04/09 05:36:20;;;;;;;10.35;8.80;;;;;;;4.03;74.22;95940.38;4931574;29;20052;-81
2022/04/09 05:38:49;;;;;;;10.43;8.65;;;;;;;4.02;74.21;95939.53;4931674;29;20130;-81
2022/04/09 05:41:17;;;;;;;9.15;7.68;;;;;;;4.07;74.10;95957.97;4931507;29;20111;-81
2022/04/09 05:43:46;;;;;;;9.05;7.45;;;;;;;4.13;73.86;95961.69;4930909;29;20055;-81
2022/04/09 05:46:13;;;;;;;8.90;6.93;;;;;;;4.17;73.68;95967.34;4930551;29;20056;-81
2022/04/09 05:48:41;;;;;;;8.52;7.18;;;;;;;4.19;73.59;95975.75;4930312;29;20052;-81
2022/04/09 05:51:09;;;;;;;12.18;8.43;;;;;;;4.19;72.78;95973.16;4928428;29;20079;-81
2022/04/09 05:53:37;;;;;;;8.00;7.15;;;;;;;4.21;72.28;95976.41;4928658;29;20115;-81
2022/04/09 05:56:05;;;;;;;9.60;6.85;;;;;;;4.24;73.36;95984.66;4926749;29;20048;-81
2022/04/09 05:58:34;;;;;;;8.23;6.97;;;;;;;4.28;72.88;95985.13;4929338;29;20056;-81
2022/04/09 06:01:03;;;;;;;7.55;6.32;;;;;;;4.31;72.42;96001.13;4927818;29;20051;-81
2022/04/09 06:03:32;;;;;;;8.27;6.28;;;;;;;4.35;72.60;95996.44;4928034;29;20056;-81
2022/04/09 06:06:00;;;;;;;8.20;6.68;;;;;;;4.40;72.33;96009.69;4925794;29;20052;-81
2022/04/09 06:08:27;;;;;;;8.20;6.30;;;;;;;4.42;72.66;96012.94;4926084;29;20138;-81
2022/04/09 06:10:55;;;;;;;12.32;7.47;;;;;;;4.50;73.24;96018.13;4928348;29;20052;-82
2022/04/09 06:13:23;;;;;;;11.48;8.18;;;;;;;4.55;73.54;96033.13;4928067;29;20059;-82
2022/04/09 06:15:50;;;;;;;7.93;6.80;;;;;;;4.57;73.06;96035.53;4937115;29;20071;-81
2022/04/09 06:18:20;;;;;;;7.60;6.53;;;;;;;4.59;73.70;96033.63;4931678;29;20056;-81
2022/04/09 06:20:47;;;;;;;9.02;7.47;;;;;;;4.61;73.46;96036.84;4928083;29;20070;-81
2022/04/09 06:23:15;;;;;;;11.18;8.18;;;;;;;4.64;73.95;96046.88;4928232;29;20119;-81
2022/04/09 06:25:43;;;;;;;7.80;6.90;;;;;;;4.67;73.09;96052.53;4927698;29;20140;-81
2022/04/09 06:28:12;;;;;;;7.40;6.25;;;;;;;4.70;72.21;96066.91;4927512;29;20052;-81
2022/04/09 06:30:41;;;;;;;9.05;6.85;;;;;;;4.70;71.34;96069.47;4930119;29;20119;-81
2022/04/09 06:33:09;;;;;;;8.75;7.07;;;;;;;4.66;71.14;96075.97;4927627;29;20052;-81
2022/04/09 06:35:38;;;;;;;8.15;6.93;;;;;;;4.69;72.67;96078.22;4932470;29;20112;-81
2022/04/09 06:38:06;;;;;;;10.35;7.32;;;;;;;4.73;71.72;96088.06;4930890;29;20055;-81
2022/04/09 06:40:34;;;;;;;9.63;6.82;;;;;;;4.75;71.60;96085.34;4927913;29;20079;-81
2022/04/09 06:43:02;;;;;;;8.05;7.03;;;;;;;4.75;71.54;96080.97;4927717;29;20048;-81
2022/04/09 06:45:30;;;;;;;10.85;6.90;;;;;;;4.80;72.04;96093.41;4927275;29;20403;-81
2022/04/09 06:47:58;;;;;;;7.22;6.05;;;;;;;4.80;71.07;96093.41;4933552;29;20056;-82
2022/04/09 06:50:26;;;;;;;10.93;7.00;;;;;;;4.81;71.09;96097.63;4928643;29;20048;-81
2022/04/09 06:52:55;;;;;;;10.63;7.32;;;;;;;4.82;69.72;96106.19;4928488;29;20119;-81
2022/04/09 06:55:25;;;;;;;9.27;6.60;;;;;;;4.79;69.92;96102.16;4922208;29;20083;-81
2022/04/09 06:58:00;;;;;;;8.20;6.55;;;;;;;4.74;69.96;96110.38;4926485;29;20334;-81
2022/04/09 07:00:28;;;;;;;10.00;6.85;;;;;;;4.73;70.53;96119.06;4927875;29;20111;-81
2022/04/09 07:02:56;;;;;;;10.32;6.28;;;;;;;4.73;70.31;96115.69;4932221;29;20067;-81
2022/04/09 07:05:24;;;;;;;8.45;6.53;;;;;;;4.73;70.30;96124.25;4927024;29;20059;-81
2022/04/09 07:07:51;;;;;;;9.23;5.68;;;;;;;4.71;69.58;96126.16;4926359;29;20066;-81
2022/04/09 07:10:21;;;;;;;8.60;6.50;;;;;;;4.70;70.17;96123.72;4926843;29;20062;-81
2022/04/09 07:12:49;;;;;;;9.90;6.80;;;;;;;4.66;70.29;96125.03;4927059;29;20059;-81
2022/04/09 07:15:16;;;;;;;9.48;6.63;;;;;;;4.63;69.89;96120.16;4927251;29;20304;-81
2022/04/09 07:17:44;;;;;;;9.98;6.25;;;;;;;4.66;69.64;96123.25;4927993;29;20054;-81
2022/04/09 07:20:12;;;;;;;9.77;6.25;;;;;;;4.69;69.22;96127.28;4928747;29;20112;-81
2022/04/09 07:22:40;;;;;;;7.22;5.22;;;;;;;4.68;69.00;96125.66;4929308;29;20052;-81
2022/04/09 07:25:09;;;;;;;8.50;6.18;;;;;;;4.66;70.22;96143.13;4927021;29;20052;-81
2022/04/09 07:27:40;;;;;;;10.10;6.82;;;;;;;4.67;71.05;96149.91;4926055;29;20044;-81
2022/04/09 07:30:11;;;;;;;8.55;6.20;;;;;;;4.67;70.37;96157.66;4925877;29;20048;-81
2022/04/09 07:32:39;;;;;;;10.38;6.13;;;;;;;4.68;70.37;96156.66;4926421;29;20080;-81
2022/04/09 07:35:08;;;;;;;7.75;5.40;;;;;;;4.69;70.25;96164.28;4926518;29;20052;-81
2022/04/09 07:37:40;;;;;;;7.82;5.38;;;;;;;4.71;69.80;96171.88;4925480;29;20070;-81
2022/04/09 07:40:09;;;;;;;8.63;5.67;;;;;;;4.68;70.39;96167.84;4926337;29;20056;-81
2022/04/09 07:42:38;;;;;;;9.00;5.60;;;;;;;4.68;70.76;96177.34;4927188;29;20603;-81
2022/04/09 07:45:07;;;;;;;11.68;5.63;;;;;;;4.69;69.71;96181.56;4930981;29;20078;-81
2022/04/09 07:47:35;;;;;;;8.30;6.20;;;;;;;4.67;70.48;96173.16;4925606;29;20059;-81
2022/04/09 07:50:06;;;;;;;7.57;4.85;;;;;;;4.67;69.48;96175.72;4930073;29;20052;-81
2022/04/09 07:52:33;;;;;;;6.38;5.03;;;;;;;4.67;69.44;96181.69;4926059;29;20511;-81
2022/04/09 07:55:01;;;;;;;6.18;4.75;;;;;;;4.73;70.46;96180.28;4926171;29;20075;-81
2022/04/09 07:57:29;;;;;;;6.88;5.72;;;;;;;4.81;70.90;96188.06;4925494;29;20052;-81
2022/04/09 07:59:58;;;;;;;6.68;5.20;;;;;;;4.87;69.80;96182.25;4925348;29;20056;-81
2022/04/09 08:02:26;;;;;;;6.03;5.22;;;;;;;4.90;69.62;96184.53;4933168;29;20115;-82
2022/04/09 08:04:54;;;;;;;8.32;5.22;;;;;;;4.98;69.85;96195.88;4936446;29;20115;-81
2022/04/09 08:07:21;;;;;;;7.30;5.25;;;;;;;5.02;68.74;96192.81;4924604;29;20062;-81
2022/04/09 08:09:49;;;;;;;7.78;5.13;;;;;;;5.00;67.74;96184.41;4936172;29;20044;-81
2022/04/09 08:12:16;;;;;;;8.32;6.05;;;;;;;4.98;68.43;96190.69;4925985;29;20052;-81
2022/04/09 08:14:44;;;;;;;12.10;6.57;;;;;;;5.03;69.33;96196.19;4925392;29;20048;-81
2022/04/09 08:17:16;;;;;;;5.78;5.07;;;;;;;5.03;69.13;96198.78;4925737;29;20048;-81
2022/04/09 08:19:44;;;;;;;7.00;4.90;;;;;;;4.99;68.88;96194.91;4926138;29;20094;-81
2022/04/09 08:22:12;;;;;;;9.90;5.95;;;;;;;4.97;69.57;96202.03;4926122;29;20052;-81
2022/04/09 08:24:41;;;;;;;8.45;5.55;;;;;;;4.98;68.36;96206.22;4925830;29;20059;-81
2022/04/09 08:27:09;;;;;;;7.65;4.82;;;;;;;4.98;69.01;96206.22;4925767;29;20059;-81
2022/04/09 08:29:37;;;;;;;11.23;5.88;;;;;;;4.98;69.34;96201.84;4926301;29;20056;-81
2022/04/09 08:32:05;;;;;;;5.97;4.60;;;;;;;5.01;69.60;96208.47;4925993;29;20064;-81
2022/04/09 08:34:35;;;;;;;7.90;4.90;;;;;;;5.03;69.81;96207.38;4925360;29;20427;-81
2022/04/09 08:37:06;;;;;;;6.88;4.90;;;;;;;5.05;68.62;96212.38;4925701;29;20056;-81
2022/04/09 08:39:34;;;;;;;8.75;5.75;;;;;;;5.07;69.72;96213.03;4928410;29;20060;-81
2022/04/09 08:42:02;;;;;;;8.25;5.53;;;;;;;5.10;69.59;96213.53;4925879;29;20147;-81
2022/04/09 08:44:30;;;;;;;10.07;5.88;;;;;;;5.08;69.72;96212.88;4929240;29;20134;-81
2022/04/09 08:46:58;;;;;;;7.70;5.28;;;;;;;5.12;69.73;96218.56;4925807;29;20051;-81
2022/04/09 08:49:29;;;;;;;8.35;5.22;;;;;;;5.19;67.89;96219.53;4926265;29;20060;-81
2022/04/09 08:51:59;;;;;;;8.13;5.53;;;;;;;5.26;68.63;96220.50;4926141;29;20056;-81
2022/04/09 08:54:27;;;;;;;10.10;5.82;;;;;;;5.29;68.65;96222.81;4926453;29;20060;-81
2022/04/09 08:56:55;;;;;;;8.38;5.50;;;;;;;5.33;69.18;96225.88;4925074;29;20052;-81
2022/04/09 08:59:23;;;;;;;12.00;5.15;;;;;;;5.32;68.13;96221.69;4925990;29;20054;-81
2022/04/09 09:01:50;;;;;;;8.15;5.50;;;;;;;5.33;67.58;96225.88;4932121;29;20115;-81
2022/04/09 09:04:19;;;;;;;7.28;4.63;;;;;;;5.32;68.31;96234.59;4925966;29;20060;-81
2022/04/09 09:06:47;;;;;;;6.63;4.50;;;;;;;5.34;68.58;96233.47;4925334;29;20170;-81
2022/04/09 09:09:29;;;;;;;6.05;4.43;;;;;;;5.42;66.22;96226.69;4925500;29;20076;-81
2022/04/09 09:12:00;;;;;;;7.55;4.82;;;;;;;5.47;68.12;96230.44;4927145;29;20115;-81
2022/04/09 09:14:30;;;;;;;7.13;4.95;;;;;;;5.69;68.73;96234.19;4929669;29;20519;-81
2022/04/09 09:16:59;;;;;;;8.07;5.05;;;;;;;5.81;68.40;96233.88;4926085;29;20483;-81
2022/04/09 09:19:41;;;;;;;6.05;4.47;;;;;;;5.93;67.14;96230.81;4926513;29;20073;-81
2022/04/09 09:22:09;;;;;;;5.60;4.20;;;;;;;6.46;65.90;96231.28;4929648;29;20113;-81
2022/04/09 09:24:38;;;;;;;7.78;4.05;;;;;;;7.61;62.13;96228.22;4928193;29;20293;-81
2022/04/09 09:27:07;;;;;;;5.25;3.80;;;;;;;8.73;59.09;96231.03;4929124;29;20060;-82
2022/04/09 09:29:36;;;;;;;6.97;4.05;;;;;;;10.06;56.97;96234.34;4926192;29;20055;-81
2022/04/09 09:32:07;;;;;;;6.78;3.97;;;;;;;11.24;51.77;96234.50;4925313;29;20052;-81
2022/04/09 09:34:35;;;;;;;4.78;3.92;;;;;;;11.69;50.04;96242.72;4925257;29;20071;-81
2022/04/09 09:37:03;;;;;;;8.07;4.00;;;;;;;11.46;49.71;96245.66;4925849;29;20067;-81
2022/04/09 09:39:33;;;;;;;5.40;3.88;;;;;;;11.78;48.65;96245.94;4947957;23;20075;-80
2022/04/09 09:42:04;;;;;;;5.13;3.17;;;;;;;11.99;46.84;96248.44;4954135;29;20084;-80
2022/04/09 09:44:34;;;;;;;5.38;3.15;;;;;;;11.40;49.47;96244.63;4954593;29;20079;-81
2022/04/09 09:47:06;;;;;;;7.97;3.00;;;;;;;10.79;48.30;96247.16;4953990;29;20054;-80
2022/04/09 09:49:37;;;;;;;6.53;3.00;;;;;;;10.35;50.00;96258.69;4945033;29;20116;-79
2022/04/09 09:52:08;;;;;;;5.80;2.55;;;;;;;9.98;49.62;96250.91;4936415;29;20070;-80
2022/04/09 09:54:54;;;;;;;4.32;2.65;;;;;;;9.97;50.41;96249.31;4936831;29;20075;-80
2022/04/09 09:57:26;;;;;;;5.95;2.97;;;;;;;9.77;51.19;96248.28;4935536;29;20112;-80
2022/04/09 09:59:55;;;;;;;5.85;3.28;;;;;;;9.17;52.39;96242.41;4936365;29;20112;-80
2022/04/09 10:02:29;;;;;;;8.98;2.35;;;;;;;8.77;53.77;96254.91;4936950;29;20049;-80
2022/04/09 10:04:57;;;;;;;3.97;2.22;;;;;;;8.38;55.67;96253.28;4936397;29;20056;-80
2022/04/09 10:07:26;;;;;;;4.93;2.33;;;;;;;8.15;56.70;96259.31;4935527;29;20062;-80
2022/04/09 10:09:54;;;;;;;10.80;2.80;;;;;;;7.97;57.80;96259.63;4935253;29;20107;-80
2022/04/09 10:12:25;;;;;;;6.65;2.72;;;;;;;7.81;57.01;96262.34;4935325;29;20093;-80
2022/04/09 10:14:55;;;;;;;5.15;2.50;;;;;;;7.66;57.80;96264.88;4935918;29;20049;-80
2022/04/09 10:17:24;;;;;;;7.40;3.10;;;;;;;7.51;58.93;96266.56;4935567;29;20059;-81
2022/04/09 10:19:55;;;;;;;5.50;2.67;;;;;;;7.49;58.26;96266.72;4936442;29;20063;-80
2022/04/09 10:22:25;;;;;;;4.88;2.53;;;;;;;7.60;57.54;96260.34;4936038;29;20060;-80
2022/04/09 10:24:55;;;;;;;3.15;2.10;;;;;;;7.67;56.47;96266.47;4936390;29;20108;-80
2022/04/09 10:27:38;;;;;;;4.90;2.42;;;;;;;7.81;58.27;96262.34;4935497;29;20072;-80
2022/04/09 10:30:19;;;;;;;3.28;2.08;;;;;;;7.86;57.00;96251.44;4936703;29;20060;-80
2022/04/09 10:32:48;;;;;;;4.72;2.30;;;;;;;7.87;58.28;96250.44;4937239;29;20140;-80
2022/04/09 10:35:38;;;;;;;4.68;3.33;;;;;;;7.91;57.61;96256.91;4938390;29;20056;-80
2022/04/09 10:38:20;;;;;;;4.28;2.53;;;;;;;8.03;59.11;96258.13;4937577;29;20063;-80
2022/04/09 10:41:31;;;;;;;4.03;2.53;;;;;;;8.12;57.25;96264.88;4937946;29;20063;-80
2022/04/09 10:44:01;;;;;;;7.30;3.03;;;;;;;8.16;56.89;96260.94;4938552;29;20119;-81
2022/04/09 10:46:34;;;;;;;6.10;2.72;;;;;;;8.15;57.66;96258.50;4937332;29;20120;-81
2022/04/09 10:49:19;;;;;;;7.63;2.13;;;;;;;8.14;56.29;96262.09;4938163;29;20055;-80
2022/04/09 10:52:08;;;;;;;6.65;1.80;;;;;;;8.10;54.45;96261.63;4938498;29;20051;-80
2022/04/09 10:54:36;;;;;;;9.05;1.95;;;;;;;8.08;56.75;96268.78;4938489;29;20142;-81
2022/04/09 10:57:08;;;;;;;5.75;1.80;;;;;;;8.13;56.18;96263.06;4937962;29;20044;-80
2022/04/09 10:59:38;;;;;;;5.53;2.00;;;;;;;8.27;54.92;96264.13;4938641;29;20054;-81
2022/04/09 11:02:06;;;;;;;6.65;1.58;;;;;;;8.38;54.50;96256.69;4938954;29;20074;-80
2022/04/09 11:04:42;;;;;;;4.00;1.98;;;;;;;8.49;54.46;96257.28;4939642;29;20081;-81
2022/04/09 11:07:15;;;;;;;5.13;1.80;;;;;;;8.55;53.29;96260.00;4939256;29;20052;-80
2022/04/09 11:09:44;;;;;;;3.28;1.30;;;;;;;8.61;54.86;96255.84;4939022;29;20088;-81
2022/04/09 11:12:12;;;;;;;4.70;2.22;;;;;;;8.69;53.11;96254.97;4939805;29;20099;-81
2022/04/09 11:14:47;;;;;;;3.20;1.23;;;;;;;8.70;50.14;96254.78;4939695;29;20048;-80
2022/04/09 11:17:34;;;;;;;7.13;1.45;;;;;;;8.70;49.10;96267.00;4939675;29;20048;-80
2022/04/09 11:20:05;;;;;;;3.33;1.38;;;;;;;8.71;52.77;96261.63;4939867;29;20093;-80
2022/04/09 11:22:35;;;;;;;3.35;1.42;;;;;;;8.75;50.85;96267.28;4940201;29;20071;-80
2022/04/09 11:25:04;;;;;;;5.18;2.10;;;;;;;8.80;53.76;96257.13;4940161;29;20103;-80
2022/04/09 11:27:33;;;;;;;4.35;1.80;;;;;;;8.80;53.01;96264.94;4939691;29;20209;-81
2022/04/09 11:30:04;;;;;;;7.70;1.88;;;;;;;8.78;50.24;96259.91;4940326;29;20091;-80
2022/04/09 11:32:35;;;;;;;4.45;1.58;;;;;;;8.79;53.11;96258.94;4940012;29;20040;-80
2022/04/09 11:35:08;;;;;;;2.97;1.75;;;;;;;8.79;51.77;96264.13;4940664;29;20097;-80
2022/04/09 11:37:40;;;;;;;12.40;3.22;;;;;;;8.80;51.71;96275.34;4940226;29;20056;-80
2022/04/09 11:40:09;;;;;;;3.97;1.70;;;;;;;8.77;52.95;96263.50;4941857;28;20040;-79
2022/04/09 11:42:44;;;;;;;6.72;2.55;;;;;;;8.75;53.19;96262.09;4941690;29;20079;-80
2022/04/09 11:45:21;;;;;;;6.57;2.00;;;;;;;8.77;51.43;96257.50;4940034;29;20036;-83
2022/04/09 11:47:50;;;;;;;6.85;2.13;;;;;;;8.82;53.94;96257.78;4939561;29;20040;-83
2022/04/09 11:50:19;;;;;;;4.20;1.80;;;;;;;8.90;53.43;96256.84;4940658;29;20077;-83